CheckWX is a tool to help pilots better visualize weather data.  It is not intended as a substitute for an official pre-flight weather briefing.

09:50:33 UTC

KRFD METAR
Chicago / Rockford International Airport
Chicago/Rockford, Illinois, USA
Current

57 mins ago

KRFD 200854Z 09009KT 8SM -SN BKN050 OVC065 M02/M07 A3014 RMK AO2 SLP215 P0000 60000 T10221067 58048
Observed
Feb-20 @ 08:54 UTC
Wind
  • 090° at 9 KTS
Visibility
12,875 meters
Flight Rules
VFR
Conditions
Light Snow
Cloud Levels
  • Broken at 5,000' AGL
  • Overcast at 6,500' AGL
Temperature
-2°C / 28°F
Dewpoint
-7°C / 19°F
Humidity
69%
Altimeter
30.14" Hg
Pressure
1021.5 hPa
Current Rain
0.01"
Previous

2 hours ago

KRFD 200754Z 09009KT 10SM -SN OVC055 M02/M06 A3017 RMK AO2 SNB52 PRESFR SLP227 P0000 T10221061
Observed
Feb-20 @ 07:54 UTC
Wind
  • 090° at 9 KTS
Visibility
16,093 meters
Flight Rules
VFR
Conditions
Light Snow
Cloud Levels
  • Overcast at 5,500' AGL
Temperature
-2°C / 28°F
Dewpoint
-6°C / 21°F
Humidity
74%
Altimeter
30.17" Hg
Pressure
1022.7 hPa
Current Rain
0.01"
Previous

3 hours ago

KRFD 200654Z 08008KT 10SM OVC060 M02/M06 A3024 RMK AO2 SLP252 T10221061
Observed
Feb-20 @ 06:54 UTC
Wind
  • 080° at 8 KTS
Visibility
16,093 meters
Flight Rules
VFR
Cloud Levels
  • Overcast at 6,000' AGL
Temperature
-2°C / 28°F
Dewpoint
-6°C / 21°F
Humidity
74%
Altimeter
30.24" Hg
Pressure
1025.2 hPa